Latest Coastal Weather Observations for North Island

IDW60701

Issued at 11:02 am WST Tuesday 25 June 2024 (issued every 10 minutes, with the page automatically refreshed every 10 minutes)

About coastal observations | Map of coastal stations | Coastal observations for WA | Marine services | Other Formats
Station Details ID: 008290 Name: NORTH ISLAND Lat: -28.30 Lon: 113.59 Height: 2.2 m
Data from the previous 72 hours. | See also: Recent months at North Island
Date/Time
WST
Wind Sea
Height
m
Swell Vis
km
Cloud Weather Temp
°C
Press
MSL
hPa
Rain since
9am
mm
Dir  Spd
kts
Gust
kts
Height
m
Period
s
Dir
25/11:00am N 12 15 - - - - - - - 19.4 1015.8 0.0
25/10:30am N 12 16 - - - - - - - 19.3 1016.2 0.0
25/10:00am NNE 13 17 - - - - - - - 18.8 1016.5 0.0
25/09:30am NE 15 18 - - - - - - - 18.1 1016.4 0.0
25/09:00am NE 16 19 - - - - - - - 17.1 1016.5 0.0
25/08:30am NE 16 19 - - - - - - - 16.2 1016.4 0.0
25/08:00am NE 16 20 - - - - - - - 16.3 1016.6 0.0
25/07:30am NE 15 19 - - - - - - - 16.2 1016.8 0.0
25/07:00am NE 14 17 - - - - - - - 15.8 1017.3 0.0
25/06:30am NE 13 17 - - - - - - - 15.6 1017.0 0.0
25/06:00am ENE 14 17 - - - - - - - 15.8 1016.8 0.0
25/05:30am ENE 15 20 - - - - - - - 16.0 1016.5 0.0
25/05:00am ENE 14 18 - - - - - - - 16.1 1016.4 0.0
25/04:30am ENE 13 17 - - - - - - - 16.1 1017.0 0.0
25/04:00am ENE 13 18 - - - - - - - 16.2 1017.4 0.0
25/03:30am ENE 13 16 - - - - - - - 16.3 1017.7 0.0
25/03:00am ENE 13 16 - - - - - - - 16.2 1018.0 0.0
25/02:30am E 13 18 - - - - - - - 16.4 1018.3 0.0
25/02:00am ENE 13 18 - - - - - - - 16.6 1018.5 0.0
25/01:30am E 14 18 - - - - - - - 16.9 1018.6 0.0
25/01:00am E 14 19 - - - - - - - 17.1 1018.8 0.0
25/12:30am ESE 14 18 - - - - - - - 17.0 1019.1 0.0
25/12:00am E 14 18 - - - - - - - 17.1 1019.6 0.0
 
Date/Time
WST
Wind Sea
Height
m
Swell Vis
km
Cloud Weather Temp
°C
Press
MSL
hPa
Rain since
9am
mm
Dir  Spd
kts
Gust
kts
Height
m
Period
s
Dir
24/11:30pm ESE 15 21 - - - - - - - 17.2 1019.7 0.0
24/11:00pm ESE 15 19 - - - - - - - 17.3 1020.0 0.0
24/10:30pm ESE 15 19 - - - - - - - 17.3 1020.3 0.0
24/10:00pm ESE 13 17 - - - - - - - 17.4 1020.5 0.0
24/09:30pm E 13 18 - - - - - - - 17.4 1020.7 0.0
24/09:00pm ESE 13 17 - - - - - - - 17.4 1020.8 0.0
24/08:30pm ESE 13 17 - - - - - - - 17.4 1021.0 0.0
24/08:00pm ESE 13 17 - - - - - - - 17.5 1020.9 0.0
24/07:30pm ESE 15 19 - - - - - - - 17.5 1020.9 0.0
24/07:00pm ESE 13 20 - - - - - - - 17.4 1020.9 0.0
24/06:30pm ESE 13 17 - - - - - - - 17.2 1020.8 0.0
24/06:00pm ESE 14 18 - - - - - - - 17.2 1020.6 0.0
24/05:30pm ESE 12 16 - - - - - - - 17.2 1020.8 0.0
24/05:00pm SE 10 14 - - - - - - - 17.6 1021.0 0.0
24/04:30pm SE 12 16 - - - - - - - 18.2 1021.1 0.0
24/04:00pm ESE 13 17 - - - - - - - 18.4 1021.5 0.0
24/03:30pm ESE 12 16 - - - - - - - 18.7 1021.7 0.0
24/03:00pm ESE 13 17 - - - - - - - 18.7 1021.8 0.0
24/02:30pm ESE 14 18 - - - - - - - 19.1 1022.0 0.0
24/02:00pm ESE 13 17 - - - - - - - 19.0 1022.4 0.0
24/01:30pm ESE 13 17 - - - - - - - 19.2 1022.7 0.0
24/01:00pm E 14 18 - - - - - - - 19.0 1023.0 0.0
24/12:30pm E 14 18 - - - - - - - 19.1 1023.5 0.0
24/12:00pm E 13 19 - - - - - - - 19.1 1023.9 0.0
24/11:30am E 14 17 - - - - - - - 18.6 1024.4 0.0
24/11:00am E 13 19 - - - - - - - 18.7 1025.0 0.0
24/10:30am E 15 19 - - - - - - - 18.9 1025.1 0.0
24/10:00am E 15 19 - - - - - - - 18.1 1025.4 0.0
24/09:30am E 16 21 - - - - - - - 18.0 1025.3 0.0
24/09:00am E 17 24 - - - - - - - 17.8 1024.9 0.0
24/08:30am ESE 16 21 - - - - - - - 17.5 1024.9 0.0
24/08:00am ESE 16 21 - - - - - - - 16.9 1024.9 0.0
24/07:30am E 14 18 - - - - - - - 16.3 1024.4 0.0
24/07:00am ESE 14 18 - - - - - - - 16.2 1024.3 0.0
24/06:30am E 14 19 - - - - - - - 16.1 1024.2 0.0
24/06:00am E 16 21 - - - - - - - 16.1 1024.1 0.0
24/05:30am E 13 19 - - - - - - - 16.1 1024.2 0.0
24/05:00am E 14 17 - - - - - - - 16.3 1024.2 0.0
24/04:30am E 14 18 - - - - - - - 16.6 1024.1 0.0
24/04:00am E 14 19 - - - - - - - 16.6 1024.3 0.0
24/03:30am E 14 18 - - - - - - - 16.7 1024.5 0.0
24/03:00am E 14 17 - - - - - - - 16.8 1024.7 0.0
24/02:30am E 15 21 - - - - - - - 17.0 1024.9 0.0
24/02:00am E 15 19 - - - - - - - 17.4 1024.8 0.0
24/01:30am E 15 19 - - - - - - - 17.7 1025.0 0.0
24/01:00am E 13 18 - - - - - - - 17.5 1025.0 0.0
24/12:30am E 14 18 - - - - - - - 17.9 1025.2 0.0
24/12:00am E 14 19 - - - - - - - 18.3 1025.4 0.0
 
Date/Time
WST
Wind Sea
Height
m
Swell Vis
km
Cloud Weather Temp
°C
Press
MSL
hPa
Rain since
9am
mm
Dir  Spd
kts
Gust
kts
Height
m
Period
s
Dir
23/11:30pm E 14 19 - - - - - - - 18.3 1025.5 0.0
23/11:00pm SE 16 20 - - - - - - - 18.8 1025.6 0.0
23/10:30pm ESE 15 20 - - - - - - - 18.7 1025.8 0.0
23/10:00pm ESE 14 19 - - - - - - - 18.6 1025.9 0.0
23/09:30pm ESE 17 21 - - - - - - - 18.6 1025.8 0.0
23/09:00pm ESE 15 21 - - - - - - - 18.1 1025.8 0.0
23/08:30pm ESE 15 20 - - - - - - - 18.1 1025.6 0.0
23/08:00pm SE 17 21 - - - - - - - 18.3 1025.5 0.0
23/07:30pm SE 17 21 - - - - - - - 18.3 1025.2 0.0
23/07:00pm SE 15 22 - - - - - - - 17.9 1025.1 0.0
23/06:30pm SE 16 21 - - - - - - - 17.9 1025.0 0.0
23/06:00pm SE 17 21 - - - - - - - 18.1 1024.7 0.0
23/05:30pm SE 17 23 - - - - - - - 17.8 1024.7 0.0
23/05:00pm SE 17 23 - - - - - - - 18.1 1024.6 0.0
23/04:30pm ESE 18 23 - - - - - - - 18.8 1024.6 0.0
23/04:00pm ESE 16 21 - - - - - - - 19.1 1024.5 0.0
23/03:30pm SE 15 19 - - - - - - - 19.3 1024.7 0.0
23/03:00pm ESE 16 21 - - - - - - - 19.8 1024.7 0.0
23/02:30pm ESE 15 19 - - - - - - - 19.8 1024.8 0.0
23/02:00pm ESE 16 21 - - - - - - - 19.7 1024.9 0.0
23/01:30pm ESE 15 22 - - - - - - - 19.8 1025.2 0.0
23/01:00pm ESE 15 20 - - - - - - - 19.4 1025.6 0.0
23/12:30pm E 17 22 - - - - - - - 19.6 1026.0 0.0
23/12:00pm E 17 23 - - - - - - - 19.7 1026.1 0.0
23/11:30am E 16 22 - - - - - - - 19.3 1026.4 0.0
23/11:00am E 17 23 - - - - - - - 18.9 1026.7 0.0
23/10:30am E 17 24 - - - - - - - 19.3 1026.7 0.0
23/10:00am E 16 22 - - - - - - - 19.4 1026.8 0.0
23/09:30am E 15 21 - - - - - - - 19.0 1026.5 0.0
23/09:00am ESE 17 22 - - - - - - - 18.5 1026.1 0.0
23/08:30am ESE 16 21 - - - - - - - 18.4 1025.9 0.0
23/08:00am ESE 17 22 - - - - - - - 18.0 1025.6 0.0
23/07:30am ESE 16 21 - - - - - - - 17.4 1025.3 0.0
23/07:00am ESE 17 21 - - - - - - - 17.2 1024.9 0.0
23/06:30am ESE 16 21 - - - - - - - 17.1 1024.7 0.0
23/06:00am ESE 14 18 - - - - - - - 17.1 1024.3 0.0
23/05:30am ESE 14 19 - - - - - - - 17.1 1024.2 0.0
23/05:00am ESE 15 19 - - - - - - - 17.3 1024.1 0.0
23/04:30am ESE 15 18 - - - - - - - 17.2 1024.0 0.0
23/04:00am ESE 15 19 - - - - - - - 17.4 1024.0 0.0
23/03:30am ESE 14 19 - - - - - - - 17.5 1024.0 0.0
23/03:00am ESE 14 19 - - - - - - - 17.6 1024.0 0.0
23/02:30am ESE 13 16 - - - - - - - 17.9 1024.3 0.0
23/02:00am SE 14 18 - - - - - - - 18.0 1024.2 0.0
23/01:30am ESE 14 18 - - - - - - - 18.2 1024.2 0.0
23/01:00am ESE 14 19 - - - - - - - 18.2 1024.1 0.0
23/12:30am SE 14 19 - - - - - - - 18.3 1024.0 0.0
23/12:00am SE 16 21 - - - - - - - 18.3 1024.2 0.0
 
Date/Time
WST
Wind Sea
Height
m
Swell Vis
km
Cloud Weather Temp
°C
Press
MSL
hPa
Rain since
9am
mm
Dir  Spd
kts
Gust
kts
Height
m
Period
s
Dir
22/11:30pm SE 15 20 - - - - - - - 18.4 1024.3 0.0
22/11:00pm SE 15 19 - - - - - - - 18.3 1024.1 0.0
22/10:30pm SE 17 23 - - - - - - - 18.3 1024.0 0.0
22/10:00pm SE 17 21 - - - - - - - 18.3 1023.9 0.0
22/09:30pm SE 16 22 - - - - - - - 18.3 1023.7 0.0
22/09:00pm SE 17 22 - - - - - - - 18.4 1023.6 0.0
22/08:30pm SE 17 21 - - - - - - - 18.5 1023.4 0.0
22/08:00pm SE 18 23 - - - - - - - 18.8 1023.1 0.0
22/07:30pm SE 17 23 - - - - - - - 18.9 1022.8 0.0
22/07:00pm SE 16 21 - - - - - - - 18.9 1022.6 0.0
22/06:30pm SE 19 24 - - - - - - - 19.1 1022.2 0.0
22/06:00pm SE 17 23 - - - - - - - 19.2 1021.8 0.0
22/05:30pm SE 19 24 - - - - - - - 19.1 1021.4 0.0
22/05:00pm SE 20 24 - - - - - - - 19.3 1021.2 0.0
22/04:30pm SE 19 24 - - - - - - - 19.5 1020.9 0.0
22/04:00pm SE 19 24 - - - - - - - 19.7 1020.7 0.0
22/03:30pm SSE 20 25 - - - - - - - 20.1 1020.3 0.0
22/03:00pm SSE 17 21 - - - - - - - 20.2 1020.1 0.0
22/02:30pm SSE 17 21 - - - - - - - 19.3 1020.2 0.0
22/02:00pm SSE 15 20 - - - - - - - 18.5 1020.3 0.0
22/01:30pm SSE 15 21 - - - - - - - 19.0 1020.5 0.0
22/01:00pm SSE 15 20 - - - - - - - 20.3 1020.4 0.0
22/12:30pm SW 11 14 - - - - - - - 21.2 1020.7 0.0
22/12:00pm SW 13 17 - - - - - - - 21.2 1020.9 0.0
22/11:30am SW 15 18 - - - - - - - 21.3 1021.0 0.0

Other formats

Comma delimited format used in spreadsheet applications
http://www.bom.gov.au/fwo/IDW60701/IDW60701.94405.axf

JavaScript Object Notation format (JSON) in row-major order
http://www.bom.gov.au/fwo/IDW60701/IDW60701.94405.json

Data quality

Most of these data are generated automatically and are frequently updated. Quality checks on data are not normally performed. It is possible for incorrect values to appear. Refer to information at About Latest Weather Observations and please check the disclaimer before using these data.